Terminal Aerodrome Forecast
Issued by NWS

Home | Current Version | Previous Version | Text Only | Print | Product List | Glossary On
Versions: 1 2 3 4 5 6 7 8 9 10 11 12 13 14 15 16 17
000
FTUS45 KGGW 280521
TAFOLF
TAF
KOLF 280521Z 2806/0106 08007KT P6SM BKN018
     FM280900 08006KT P6SM BKN015
     FM281600 12007KT P6SM VCSH BKN015
     FM282200 34008KT P6SM VCSH BKN015
     FM010400 30005KT P6SM SCT013 BKN018=

USA.gov is the U.S. government's official web portal to all federal, state and local government web resources and services.